sensor_id;sensor_type;location;lat;lon;timestamp;pressure;altitude;pressure_sealevel;temperature;humidity
22257;BME280;11297;42.686;23.374;2023-01-09T00:00:10;95287.94;;;7.11;59.67
22257;BME280;11297;42.686;23.374;2023-01-09T00:02:36;95282.53;;;7.07;59.67
22257;BME280;11297;42.686;23.374;2023-01-09T00:05:06;95270.94;;;7.05;60.22
22257;BME280;11297;42.686;23.374;2023-01-09T00:07:31;95281.16;;;7.19;59.68
22257;BME280;11297;42.686;23.374;2023-01-09T00:09:57;95291.72;;;7.23;59.35
22257;BME280;11297;42.686;23.374;2023-01-09T00:12:22;95290.25;;;7.12;60.19
22257;BME280;11297;42.686;23.374;2023-01-09T00:14:47;95285.81;;;7.17;59.89
22257;BME280;11297;42.686;23.374;2023-01-09T00:17:13;95289.44;;;7.16;60.11
22257;BME280;11297;42.686;23.374;2023-01-09T00:19:38;95274.50;;;7.09;60.35
22257;BME280;11297;42.686;23.374;2023-01-09T00:22:04;95264.81;;;6.96;59.87
22257;BME280;11297;42.686;23.374;2023-01-09T00:24:30;95271.34;;;6.88;60.41
22257;BME280;11297;42.686;23.374;2023-01-09T00:26:56;95275.41;;;6.94;60.70
22257;BME280;11297;42.686;23.374;2023-01-09T00:29:21;95276.50;;;6.88;60.18
22257;BME280;11297;42.686;23.374;2023-01-09T00:31:47;95275.22;;;6.86;60.32
22257;BME280;11297;42.686;23.374;2023-01-09T00:34:12;95274.91;;;6.92;60.62
22257;BME280;11297;42.686;23.374;2023-01-09T00:36:37;95272.56;;;6.96;61.20
22257;BME280;11297;42.686;23.374;2023-01-09T00:39:04;95277.88;;;7.09;60.51
22257;BME280;11297;42.686;23.374;2023-01-09T00:41:41;95287.91;;;7.15;59.84
22257;BME280;11297;42.686;23.374;2023-01-09T00:44:13;95276.53;;;7.16;59.45
22257;BME280;11297;42.686;23.374;2023-01-09T00:46:44;95262.34;;;7.14;59.74
22257;BME280;11297;42.686;23.374;2023-01-09T00:49:11;95267.69;;;7.22;59.56
22257;BME280;11297;42.686;23.374;2023-01-09T00:51:40;95270.56;;;7.21;59.66
22257;BME280;11297;42.686;23.374;2023-01-09T00:54:06;95267.44;;;7.19;59.33
22257;BME280;11297;42.686;23.374;2023-01-09T00:56:33;95260.03;;;7.13;58.63
22257;BME280;11297;42.686;23.374;2023-01-09T00:59:00;95266.47;;;7.15;58.77
22257;BME280;11297;42.686;23.374;2023-01-09T01:01:26;95267.78;;;7.13;59.11
22257;BME280;11297;42.686;23.374;2023-01-09T01:03:51;95271.72;;;7.05;59.18
22257;BME280;11297;42.686;23.374;2023-01-09T01:06:17;95276.38;;;7.03;59.30
22257;BME280;11297;42.686;23.374;2023-01-09T01:09:01;95282.09;;;6.95;58.87
22257;BME280;11297;42.686;23.374;2023-01-09T01:11:26;95270.47;;;6.98;59.31
22257;BME280;11297;42.686;23.374;2023-01-09T01:13:52;95266.38;;;6.92;59.04
22257;BME280;11297;42.686;23.374;2023-01-09T01:16:18;95262.81;;;6.88;59.02
22257;BME280;11297;42.686;23.374;2023-01-09T01:18:44;95257.63;;;6.88;58.96
22257;BME280;11297;42.686;23.374;2023-01-09T01:21:11;95256.28;;;6.95;59.30
22257;BME280;11297;42.686;23.374;2023-01-09T01:23:37;95251.38;;;6.99;59.24
22257;BME280;11297;42.686;23.374;2023-01-09T01:26:08;95249.28;;;7.01;59.49
22257;BME280;11297;42.686;23.374;2023-01-09T01:28:34;95245.94;;;7.00;58.64
22257;BME280;11297;42.686;23.374;2023-01-09T01:31:01;95246.91;;;7.04;58.87
22257;BME280;11297;42.686;23.374;2023-01-09T01:33:26;95232.25;;;7.00;58.85
22257;BME280;11297;42.686;23.374;2023-01-09T01:36:00;95232.00;;;6.96;58.57
22257;BME280;11297;42.686;23.374;2023-01-09T01:38:25;95219.16;;;6.91;59.07
22257;BME280;11297;42.686;23.374;2023-01-09T01:40:52;95235.47;;;6.82;59.12
22257;BME280;11297;42.686;23.374;2023-01-09T01:43:17;95241.28;;;6.69;59.17
22257;BME280;11297;42.686;23.374;2023-01-09T01:45:43;95212.56;;;6.42;60.11
22257;BME280;11297;42.686;23.374;2023-01-09T01:48:12;95229.56;;;6.43;60.33
22257;BME280;11297;42.686;23.374;2023-01-09T01:51:01;95235.34;;;6.30;59.81
22257;BME280;11297;42.686;23.374;2023-01-09T01:53:49;95220.13;;;6.29;60.75
22257;BME280;11297;42.686;23.374;2023-01-09T01:59:10;95218.63;;;6.23;60.92
22257;BME280;11297;42.686;23.374;2023-01-09T02:01:39;95216.25;;;6.26;61.19
22257;BME280;11297;42.686;23.374;2023-01-09T02:04:07;95206.16;;;6.30;60.78
22257;BME280;11297;42.686;23.374;2023-01-09T02:06:33;95206.72;;;6.27;60.79
22257;BME280;11297;42.686;23.374;2023-01-09T02:09:00;95197.81;;;6.10;61.24
22257;BME280;11297;42.686;23.374;2023-01-09T02:11:26;95198.84;;;6.09;61.65
22257;BME280;11297;42.686;23.374;2023-01-09T02:13:52;95200.91;;;6.02;61.32
22257;BME280;11297;42.686;23.374;2023-01-09T02:19:35;95199.84;;;6.08;61.49
22257;BME280;11297;42.686;23.374;2023-01-09T02:22:24;95198.25;;;6.17;61.54
22257;BME280;11297;42.686;23.374;2023-01-09T02:27:48;95195.31;;;6.33;60.56
22257;BME280;11297;42.686;23.374;2023-01-09T02:34:06;95199.13;;;6.45;59.79
22257;BME280;11297;42.686;23.374;2023-01-09T02:36:41;95194.16;;;6.54;59.78
22257;BME280;11297;42.686;23.374;2023-01-09T02:44:29;95187.16;;;6.59;59.90
22257;BME280;11297;42.686;23.374;2023-01-09T02:47:02;95189.94;;;6.63;59.96
22257;BME280;11297;42.686;23.374;2023-01-09T02:49:28;95197.41;;;6.69;59.68
22257;BME280;11297;42.686;23.374;2023-01-09T02:54:41;95195.91;;;6.63;58.99
22257;BME280;11297;42.686;23.374;2023-01-09T02:57:20;95187.94;;;6.55;59.50
22257;BME280;11297;42.686;23.374;2023-01-09T03:02:47;95196.88;;;6.34;59.66
22257;BME280;11297;42.686;23.374;2023-01-09T03:05:51;95188.38;;;6.28;59.58
22257;BME280;11297;42.686;23.374;2023-01-09T03:08:24;95183.22;;;6.28;59.88
22257;BME280;11297;42.686;23.374;2023-01-09T03:13:23;95188.47;;;6.18;59.93
22257;BME280;11297;42.686;23.374;2023-01-09T03:15:50;95184.88;;;6.15;60.22
22257;BME280;11297;42.686;23.374;2023-01-09T03:18:20;95185.41;;;6.12;60.70
22257;BME280;11297;42.686;23.374;2023-01-09T03:20:46;95180.25;;;6.12;60.57
22257;BME280;11297;42.686;23.374;2023-01-09T03:23:12;95182.06;;;6.11;59.70
22257;BME280;11297;42.686;23.374;2023-01-09T03:25:37;95183.59;;;6.12;60.64
22257;BME280;11297;42.686;23.374;2023-01-09T03:28:06;95172.81;;;6.05;60.37
22257;BME280;11297;42.686;23.374;2023-01-09T03:30:33;95185.94;;;6.09;60.39
22257;BME280;11297;42.686;23.374;2023-01-09T03:32:58;95183.31;;;6.14;60.15
22257;BME280;11297;42.686;23.374;2023-01-09T03:35:24;95192.06;;;6.18;60.25
22257;BME280;11297;42.686;23.374;2023-01-09T03:37:50;95191.03;;;6.18;60.69
22257;BME280;11297;42.686;23.374;2023-01-09T03:40:17;95183.31;;;6.14;59.89
22257;BME280;11297;42.686;23.374;2023-01-09T03:42:42;95186.69;;;6.14;59.13
22257;BME280;11297;42.686;23.374;2023-01-09T03:45:08;95187.44;;;6.15;58.41
22257;BME280;11297;42.686;23.374;2023-01-09T03:47:34;95184.38;;;6.13;57.98
22257;BME280;11297;42.686;23.374;2023-01-09T03:49:59;95183.38;;;6.09;57.36
22257;BME280;11297;42.686;23.374;2023-01-09T03:52:24;95190.06;;;6.10;57.54
22257;BME280;11297;42.686;23.374;2023-01-09T03:54:50;95185.50;;;5.97;58.77
22257;BME280;11297;42.686;23.374;2023-01-09T03:57:15;95190.66;;;5.97;58.67
22257;BME280;11297;42.686;23.374;2023-01-09T03:59:40;95182.94;;;5.92;59.34
22257;BME280;11297;42.686;23.374;2023-01-09T04:02:06;95180.91;;;5.84;59.09
22257;BME280;11297;42.686;23.374;2023-01-09T04:04:31;95184.47;;;5.93;59.07
22257;BME280;11297;42.686;23.374;2023-01-09T04:06:57;95186.56;;;5.91;59.05
22257;BME280;11297;42.686;23.374;2023-01-09T04:09:22;95166.78;;;5.76;59.60
22257;BME280;11297;42.686;23.374;2023-01-09T04:11:47;95190.69;;;5.92;59.80
22257;BME280;11297;42.686;23.374;2023-01-09T04:14:13;95173.16;;;5.89;59.67
22257;BME280;11297;42.686;23.374;2023-01-09T04:16:38;95173.88;;;5.99;59.29
22257;BME280;11297;42.686;23.374;2023-01-09T04:19:04;95175.94;;;6.02;59.79
22257;BME280;11297;42.686;23.374;2023-01-09T04:21:29;95187.50;;;6.05;60.03
22257;BME280;11297;42.686;23.374;2023-01-09T04:23:55;95180.81;;;6.04;60.06
22257;BME280;11297;42.686;23.374;2023-01-09T04:26:20;95160.22;;;5.99;59.87
22257;BME280;11297;42.686;23.374;2023-01-09T04:28:46;95176.44;;;6.04;59.68
22257;BME280;11297;42.686;23.374;2023-01-09T04:31:12;95176.16;;;6.06;60.52
22257;BME280;11297;42.686;23.374;2023-01-09T04:33:37;95172.78;;;6.48;74.00
22257;BME280;11297;42.686;23.374;2023-01-09T04:36:03;95180.13;;;6.31;65.22
22257;BME280;11297;42.686;23.374;2023-01-09T04:38:28;95170.59;;;6.27;62.17
22257;BME280;11297;42.686;23.374;2023-01-09T04:40:54;95173.44;;;6.30;61.81
22257;BME280;11297;42.686;23.374;2023-01-09T04:43:19;95168.28;;;6.30;61.23
22257;BME280;11297;42.686;23.374;2023-01-09T04:45:44;95166.97;;;7.22;80.64
22257;BME280;11297;42.686;23.374;2023-01-09T04:48:10;95170.94;;;6.82;71.39
22257;BME280;11297;42.686;23.374;2023-01-09T04:50:35;95172.56;;;6.78;64.01
22257;BME280;11297;42.686;23.374;2023-01-09T04:53:01;95167.38;;;6.78;60.99
22257;BME280;11297;42.686;23.374;2023-01-09T04:55:26;95173.84;;;6.75;60.25
22257;BME280;11297;42.686;23.374;2023-01-09T04:57:51;95159.94;;;6.71;60.48
22257;BME280;11297;42.686;23.374;2023-01-09T05:00:17;95163.84;;;6.69;59.63
22257;BME280;11297;42.686;23.374;2023-01-09T05:02:42;95149.19;;;6.65;60.11
22257;BME280;11297;42.686;23.374;2023-01-09T05:05:09;95151.50;;;6.61;60.53
22257;BME280;11297;42.686;23.374;2023-01-09T05:07:35;95155.59;;;6.67;60.19
22257;BME280;11297;42.686;23.374;2023-01-09T05:10:01;95158.69;;;6.69;59.08
22257;BME280;11297;42.686;23.374;2023-01-09T05:12:26;95154.06;;;6.66;59.35
22257;BME280;11297;42.686;23.374;2023-01-09T05:14:52;95166.19;;;6.65;59.28
22257;BME280;11297;42.686;23.374;2023-01-09T05:17:17;95168.06;;;6.60;59.01
22257;BME280;11297;42.686;23.374;2023-01-09T05:19:43;95169.97;;;6.45;59.55
22257;BME280;11297;42.686;23.374;2023-01-09T05:22:12;95167.16;;;6.41;59.62
22257;BME280;11297;42.686;23.374;2023-01-09T05:24:39;95171.03;;;6.44;60.58
22257;BME280;11297;42.686;23.374;2023-01-09T05:27:05;95146.94;;;6.20;59.98
22257;BME280;11297;42.686;23.374;2023-01-09T05:29:30;95171.94;;;6.24;59.02
22257;BME280;11297;42.686;23.374;2023-01-09T05:31:56;95181.53;;;6.14;59.38
22257;BME280;11297;42.686;23.374;2023-01-09T05:34:21;95173.28;;;6.12;59.78
22257;BME280;11297;42.686;23.374;2023-01-09T05:36:47;95160.97;;;6.04;59.51
22257;BME280;11297;42.686;23.374;2023-01-09T05:39:12;95176.13;;;6.11;60.22
22257;BME280;11297;42.686;23.374;2023-01-09T05:41:38;95158.13;;;6.06;59.99
22257;BME280;11297;42.686;23.374;2023-01-09T05:44:03;95165.09;;;6.05;60.21
22257;BME280;11297;42.686;23.374;2023-01-09T05:46:30;95155.56;;;6.01;60.89
22257;BME280;11297;42.686;23.374;2023-01-09T05:48:55;95156.03;;;6.08;60.63
22257;BME280;11297;42.686;23.374;2023-01-09T05:51:21;95164.28;;;6.10;60.44
22257;BME280;11297;42.686;23.374;2023-01-09T05:53:46;95151.66;;;6.08;60.85
22257;BME280;11297;42.686;23.374;2023-01-09T05:56:12;95159.41;;;6.08;60.33
22257;BME280;11297;42.686;23.374;2023-01-09T05:58:37;95148.81;;;6.10;60.35
22257;BME280;11297;42.686;23.374;2023-01-09T06:01:03;95136.94;;;6.09;60.29
22257;BME280;11297;42.686;23.374;2023-01-09T06:03:28;95149.25;;;6.17;60.47
22257;BME280;11297;42.686;23.374;2023-01-09T06:05:54;95147.53;;;6.45;66.25
22257;BME280;11297;42.686;23.374;2023-01-09T06:08:19;95161.47;;;6.44;65.41
22257;BME280;11297;42.686;23.374;2023-01-09T06:10:45;95146.78;;;6.40;61.19
22257;BME280;11297;42.686;23.374;2023-01-09T06:13:11;95140.59;;;6.41;59.45
22257;BME280;11297;42.686;23.374;2023-01-09T06:15:36;95143.13;;;6.46;59.14
22257;BME280;11297;42.686;23.374;2023-01-09T06:18:01;95142.66;;;6.39;58.57
22257;BME280;11297;42.686;23.374;2023-01-09T06:20:28;95143.47;;;6.34;57.72
22257;BME280;11297;42.686;23.374;2023-01-09T06:22:54;95149.69;;;6.28;57.84
22257;BME280;11297;42.686;23.374;2023-01-09T06:25:19;95160.06;;;6.23;58.32
22257;BME280;11297;42.686;23.374;2023-01-09T06:27:44;95145.88;;;6.21;58.58
22257;BME280;11297;42.686;23.374;2023-01-09T06:30:10;95142.78;;;6.24;58.98
22257;BME280;11297;42.686;23.374;2023-01-09T06:32:36;95139.66;;;6.27;59.19
22257;BME280;11297;42.686;23.374;2023-01-09T06:35:02;95137.59;;;6.29;59.09
22257;BME280;11297;42.686;23.374;2023-01-09T06:37:27;95130.47;;;6.16;59.20
22257;BME280;11297;42.686;23.374;2023-01-09T06:39:53;95145.59;;;6.27;59.32
22257;BME280;11297;42.686;23.374;2023-01-09T06:42:19;95136.84;;;6.23;58.66
22257;BME280;11297;42.686;23.374;2023-01-09T06:44:44;95144.25;;;6.35;58.40
22257;BME280;11297;42.686;23.374;2023-01-09T06:47:10;95141.31;;;6.46;58.90
22257;BME280;11297;42.686;23.374;2023-01-09T06:49:35;95136.09;;;6.56;58.32
22257;BME280;11297;42.686;23.374;2023-01-09T06:52:01;95143.16;;;6.74;57.86
22257;BME280;11297;42.686;23.374;2023-01-09T06:54:29;95142.13;;;6.75;58.02
22257;BME280;11297;42.686;23.374;2023-01-09T06:56:55;95148.91;;;6.94;57.25
22257;BME280;11297;42.686;23.374;2023-01-09T06:59:20;95141.50;;;7.11;56.74
22257;BME280;11297;42.686;23.374;2023-01-09T07:01:46;95136.72;;;7.23;56.81
22257;BME280;11297;42.686;23.374;2023-01-09T07:04:11;95136.78;;;7.41;56.13
22257;BME280;11297;42.686;23.374;2023-01-09T07:06:37;95136.28;;;7.62;55.27
22257;BME280;11297;42.686;23.374;2023-01-09T07:09:03;95128.94;;;8.06;56.09
22257;BME280;11297;42.686;23.374;2023-01-09T07:11:32;95127.13;;;8.43;54.42
22257;BME280;11297;42.686;23.374;2023-01-09T07:13:58;95131.75;;;8.78;53.81
22257;BME280;11297;42.686;23.374;2023-01-09T07:16:23;95118.75;;;8.96;52.57
22257;BME280;11297;42.686;23.374;2023-01-09T07:18:49;95123.84;;;9.14;52.43
22257;BME280;11297;42.686;23.374;2023-01-09T07:21:14;95122.22;;;9.32;51.11
22257;BME280;11297;42.686;23.374;2023-01-09T07:23:39;95131.91;;;9.40;50.90
22257;BME280;11297;42.686;23.374;2023-01-09T07:26:05;95130.66;;;9.37;51.36
22257;BME280;11297;42.686;23.374;2023-01-09T07:28:30;95143.81;;;9.27;51.36
22257;BME280;11297;42.686;23.374;2023-01-09T07:30:58;95136.22;;;9.17;51.04
22257;BME280;11297;42.686;23.374;2023-01-09T07:33:26;95139.69;;;9.13;51.38
22257;BME280;11297;42.686;23.374;2023-01-09T07:35:52;95139.97;;;9.11;50.80
22257;BME280;11297;42.686;23.374;2023-01-09T07:38:17;95137.94;;;9.08;50.33
22257;BME280;11297;42.686;23.374;2023-01-09T07:40:42;95128.56;;;9.39;50.50
22257;BME280;11297;42.686;23.374;2023-01-09T07:43:08;95133.31;;;9.86;48.37
22257;BME280;11297;42.686;23.374;2023-01-09T07:45:33;95129.75;;;10.52;47.65
22257;BME280;11297;42.686;23.374;2023-01-09T07:47:58;95143.50;;;10.96;46.82
22257;BME280;11297;42.686;23.374;2023-01-09T07:50:24;95133.59;;;11.67;44.58
22257;BME280;11297;42.686;23.374;2023-01-09T07:52:50;95142.09;;;12.06;43.34
22257;BME280;11297;42.686;23.374;2023-01-09T07:55:15;95148.06;;;12.57;42.03
22257;BME280;11297;42.686;23.374;2023-01-09T07:57:41;95140.72;;;12.67;42.25
22257;BME280;11297;42.686;23.374;2023-01-09T08:00:07;95141.06;;;13.28;41.56
22257;BME280;11297;42.686;23.374;2023-01-09T08:02:35;95132.31;;;13.70;40.95
22257;BME280;11297;42.686;23.374;2023-01-09T08:05:00;95136.94;;;14.22;39.61
22257;BME280;11297;42.686;23.374;2023-01-09T08:07:26;95140.63;;;14.82;38.46
22257;BME280;11297;42.686;23.374;2023-01-09T08:09:51;95147.94;;;14.88;38.97
22257;BME280;11297;42.686;23.374;2023-01-09T08:12:16;95141.78;;;15.04;38.41
22257;BME280;11297;42.686;23.374;2023-01-09T08:14:42;95141.31;;;14.90;38.15
22257;BME280;11297;42.686;23.374;2023-01-09T08:17:07;95149.66;;;14.84;38.69
22257;BME280;11297;42.686;23.374;2023-01-09T08:19:35;95145.38;;;14.80;38.94
22257;BME280;11297;42.686;23.374;2023-01-09T08:22:00;95138.47;;;14.95;38.43
22257;BME280;11297;42.686;23.374;2023-01-09T08:24:25;95149.94;;;15.03;39.01
22257;BME280;11297;42.686;23.374;2023-01-09T08:26:51;95142.41;;;15.33;38.59
22257;BME280;11297;42.686;23.374;2023-01-09T08:29:16;95124.34;;;15.64;38.37
22257;BME280;11297;42.686;23.374;2023-01-09T08:31:41;95137.97;;;15.93;39.18
22257;BME280;11297;42.686;23.374;2023-01-09T08:34:07;95130.94;;;16.33;37.54
22257;BME280;11297;42.686;23.374;2023-01-09T08:36:33;95127.72;;;16.63;37.23
22257;BME280;11297;42.686;23.374;2023-01-09T08:38:58;95139.25;;;16.35;37.38
22257;BME280;11297;42.686;23.374;2023-01-09T08:41:24;95133.03;;;16.39;37.46
22257;BME280;11297;42.686;23.374;2023-01-09T08:44:08;95133.00;;;16.51;37.04
22257;BME280;11297;42.686;23.374;2023-01-09T08:46:52;95131.22;;;16.55;37.27
22257;BME280;11297;42.686;23.374;2023-01-09T08:49:29;95135.22;;;16.26;38.42
22257;BME280;11297;42.686;23.374;2023-01-09T08:51:55;95123.72;;;16.42;37.99
22257;BME280;11297;42.686;23.374;2023-01-09T08:54:20;95114.19;;;16.49;37.69
22257;BME280;11297;42.686;23.374;2023-01-09T08:56:46;95131.31;;;16.59;38.00
22257;BME280;11297;42.686;23.374;2023-01-09T08:59:11;95124.09;;;16.68;38.22
22257;BME280;11297;42.686;23.374;2023-01-09T09:01:37;95111.88;;;16.87;37.68
22257;BME280;11297;42.686;23.374;2023-01-09T09:04:02;95105.03;;;16.98;37.94
22257;BME280;11297;42.686;23.374;2023-01-09T09:06:30;95103.94;;;17.14;37.71
22257;BME280;11297;42.686;23.374;2023-01-09T09:08:55;95112.56;;;17.42;37.31
22257;BME280;11297;42.686;23.374;2023-01-09T09:11:20;95099.78;;;17.40;36.93
22257;BME280;11297;42.686;23.374;2023-01-09T09:13:46;95100.63;;;17.60;37.20
22257;BME280;11297;42.686;23.374;2023-01-09T09:16:11;95096.72;;;17.23;37.26
22257;BME280;11297;42.686;23.374;2023-01-09T09:18:37;95094.72;;;17.20;37.13
22257;BME280;11297;42.686;23.374;2023-01-09T09:21:02;95085.38;;;17.07;37.42
22257;BME280;11297;42.686;23.374;2023-01-09T09:23:28;95084.56;;;17.03;37.56
22257;BME280;11297;42.686;23.374;2023-01-09T09:25:53;95078.09;;;16.85;37.75
22257;BME280;11297;42.686;23.374;2023-01-09T09:28:18;95069.28;;;17.36;36.85
22257;BME280;11297;42.686;23.374;2023-01-09T09:30:44;95069.84;;;17.60;36.14
22257;BME280;11297;42.686;23.374;2023-01-09T09:33:09;95071.03;;;17.63;36.46
22257;BME280;11297;42.686;23.374;2023-01-09T09:35:35;95079.72;;;19.99;81.42
22257;BME280;11297;42.686;23.374;2023-01-09T09:38:02;95066.38;;;20.76;55.42
22257;BME280;11297;42.686;23.374;2023-01-09T09:48:58;95026.75;;;23.11;47.22
22257;BME280;11297;42.686;23.374;2023-01-09T09:51:53;95009.97;;;22.72;32.05
22257;BME280;11297;42.686;23.374;2023-01-09T09:54:26;94969.31;;;21.53;31.18
22257;BME280;11297;42.686;23.374;2023-01-09T09:56:59;94981.63;;;20.92;31.77
22257;BME280;11297;42.686;23.374;2023-01-09T09:59:29;94973.41;;;20.28;32.44
22257;BME280;11297;42.686;23.374;2023-01-09T10:02:29;94976.59;;;19.30;33.90
22257;BME280;11297;42.686;23.374;2023-01-09T10:05:08;94959.59;;;18.80;34.86
22257;BME280;11297;42.686;23.374;2023-01-09T10:07:41;94953.78;;;18.30;35.27
22257;BME280;11297;42.686;23.374;2023-01-09T10:10:27;94934.97;;;17.72;36.36
22257;BME280;11297;42.686;23.374;2023-01-09T10:12:56;94937.63;;;17.22;37.55
22257;BME280;11297;42.686;23.374;2023-01-09T10:16:01;94930.09;;;17.21;38.38
22257;BME280;11297;42.686;23.374;2023-01-09T10:24:18;94893.81;;;16.61;38.71
22257;BME280;11297;42.686;23.374;2023-01-09T10:26:50;94924.59;;;16.33;39.61
22257;BME280;11297;42.686;23.374;2023-01-09T10:29:35;94920.72;;;16.16;39.44
22257;BME280;11297;42.686;23.374;2023-01-09T10:37:44;94904.94;;;15.46;40.73
22257;BME280;11297;42.686;23.374;2023-01-09T10:47:40;94898.34;;;15.64;40.37
22257;BME280;11297;42.686;23.374;2023-01-09T10:50:25;94899.78;;;15.88;39.81
22257;BME280;11297;42.686;23.374;2023-01-09T10:52:54;94847.22;;;15.81;39.55
22257;BME280;11297;42.686;23.374;2023-01-09T10:55:34;94876.81;;;15.97;39.52
22257;BME280;11297;42.686;23.374;2023-01-09T10:58:15;94879.75;;;15.96;39.75
22257;BME280;11297;42.686;23.374;2023-01-09T11:00:41;94874.09;;;15.94;39.73
22257;BME280;11297;42.686;23.374;2023-01-09T11:03:11;94871.59;;;15.70;39.86
22257;BME280;11297;42.686;23.374;2023-01-09T11:05:37;94862.78;;;15.63;40.41
22257;BME280;11297;42.686;23.374;2023-01-09T11:10:50;94853.56;;;15.02;41.13
22257;BME280;11297;42.686;23.374;2023-01-09T11:13:22;94854.59;;;14.50;41.89
22257;BME280;11297;42.686;23.374;2023-01-09T11:18:26;94865.34;;;13.61;43.49
22257;BME280;11297;42.686;23.374;2023-01-09T11:20:51;94862.50;;;13.54;44.16
22257;BME280;11297;42.686;23.374;2023-01-09T11:23:24;94852.78;;;13.42;44.24
22257;BME280;11297;42.686;23.374;2023-01-09T11:26:01;94845.78;;;13.14;44.94
22257;BME280;11297;42.686;23.374;2023-01-09T11:28:27;94856.16;;;13.02;45.34
22257;BME280;11297;42.686;23.374;2023-01-09T11:30:58;94849.22;;;12.86;45.85
22257;BME280;11297;42.686;23.374;2023-01-09T11:33:27;94854.16;;;12.42;46.46
22257;BME280;11297;42.686;23.374;2023-01-09T11:35:59;94852.28;;;13.93;80.80
22257;BME280;11297;42.686;23.374;2023-01-09T11:38:26;94843.88;;;14.91;75.04
22257;BME280;11297;42.686;23.374;2023-01-09T11:40:55;94837.44;;;14.05;46.38
22257;BME280;11297;42.686;23.374;2023-01-09T11:43:23;94833.59;;;13.59;45.66
22257;BME280;11297;42.686;23.374;2023-01-09T11:45:55;94828.28;;;13.35;46.10
22257;BME280;11297;42.686;23.374;2023-01-09T11:51:04;94818.25;;;12.76;47.34
22257;BME280;11297;42.686;23.374;2023-01-09T11:53:44;94824.44;;;12.43;47.94
22257;BME280;11297;42.686;23.374;2023-01-09T11:56:15;94822.44;;;12.11;48.68
22257;BME280;11297;42.686;23.374;2023-01-09T11:58:43;94829.84;;;12.01;49.24
22257;BME280;11297;42.686;23.374;2023-01-09T12:04:06;94814.88;;;11.90;49.67
22257;BME280;11297;42.686;23.374;2023-01-09T12:12:39;94810.91;;;11.84;49.80
22257;BME280;11297;42.686;23.374;2023-01-09T12:15:33;94802.06;;;11.68;50.21
22257;BME280;11297;42.686;23.374;2023-01-09T12:18:15;94786.19;;;11.44;50.68
22257;BME280;11297;42.686;23.374;2023-01-09T12:23:41;94786.06;;;11.24;51.36
22257;BME280;11297;42.686;23.374;2023-01-09T12:26:19;94794.78;;;11.19;51.45
22257;BME280;11297;42.686;23.374;2023-01-09T12:29:16;94785.00;;;11.08;51.81
22257;BME280;11297;42.686;23.374;2023-01-09T12:32:07;94778.59;;;10.80;52.12
22257;BME280;11297;42.686;23.374;2023-01-09T12:41:16;94774.59;;;10.41;54.02
22257;BME280;11297;42.686;23.374;2023-01-09T12:46:16;94766.19;;;10.35;54.31
22257;BME280;11297;42.686;23.374;2023-01-09T12:51:34;94772.88;;;10.28;54.32
22257;BME280;11297;42.686;23.374;2023-01-09T12:57:00;94766.59;;;10.12;54.95
22257;BME280;11297;42.686;23.374;2023-01-09T12:59:33;94756.38;;;10.15;55.25
22257;BME280;11297;42.686;23.374;2023-01-09T13:04:38;94754.34;;;9.96;55.39
22257;BME280;11297;42.686;23.374;2023-01-09T13:07:15;94750.16;;;9.86;55.30
22257;BME280;11297;42.686;23.374;2023-01-09T13:09:48;94730.41;;;9.99;55.55
22257;BME280;11297;42.686;23.374;2023-01-09T13:12:16;94732.59;;;9.83;55.45
22257;BME280;11297;42.686;23.374;2023-01-09T13:14:59;94743.44;;;9.85;56.29
22257;BME280;11297;42.686;23.374;2023-01-09T13:17:32;94733.22;;;9.89;56.16
22257;BME280;11297;42.686;23.374;2023-01-09T13:20:00;94739.25;;;9.67;57.11
22257;BME280;11297;42.686;23.374;2023-01-09T13:22:27;94747.66;;;9.73;56.23
22257;BME280;11297;42.686;23.374;2023-01-09T13:25:32;94734.78;;;9.59;57.26
22257;BME280;11297;42.686;23.374;2023-01-09T13:28:05;94729.09;;;9.49;57.29
22257;BME280;11297;42.686;23.374;2023-01-09T13:33:20;94722.75;;;9.25;58.22
22257;BME280;11297;42.686;23.374;2023-01-09T13:35:51;94741.19;;;9.02;59.05
22257;BME280;11297;42.686;23.374;2023-01-09T13:38:23;94710.31;;;8.83;60.21
22257;BME280;11297;42.686;23.374;2023-01-09T13:43:58;94741.75;;;8.90;60.20
22257;BME280;11297;42.686;23.374;2023-01-09T13:46:46;94726.56;;;8.75;60.79
22257;BME280;11297;42.686;23.374;2023-01-09T13:49:31;94737.09;;;8.79;60.38
22257;BME280;11297;42.686;23.374;2023-01-09T13:52:03;94719.72;;;8.57;60.42
22257;BME280;11297;42.686;23.374;2023-01-09T13:59:46;94725.94;;;8.57;61.29
22257;BME280;11297;42.686;23.374;2023-01-09T14:05:06;94734.66;;;8.25;61.71
22257;BME280;11297;42.686;23.374;2023-01-09T14:08:00;94715.72;;;8.16;62.02
22257;BME280;11297;42.686;23.374;2023-01-09T14:10:28;94748.09;;;8.14;61.86
22257;BME280;11297;42.686;23.374;2023-01-09T14:12:55;94728.19;;;8.14;62.54
22257;BME280;11297;42.686;23.374;2023-01-09T14:15:30;94712.56;;;7.79;62.45
22257;BME280;11297;42.686;23.374;2023-01-09T14:18:22;94724.72;;;7.92;62.67
22257;BME280;11297;42.686;23.374;2023-01-09T14:21:08;94699.06;;;7.82;62.61
22257;BME280;11297;42.686;23.374;2023-01-09T14:23:37;94732.28;;;7.89;63.27
22257;BME280;11297;42.686;23.374;2023-01-09T14:26:05;94711.13;;;7.87;63.78
22257;BME280;11297;42.686;23.374;2023-01-09T14:28:33;94714.13;;;7.67;63.29
22257;BME280;11297;42.686;23.374;2023-01-09T14:33:28;94700.22;;;7.76;63.56
22257;BME280;11297;42.686;23.374;2023-01-09T14:36:18;94695.81;;;7.77;63.74
22257;BME280;11297;42.686;23.374;2023-01-09T14:38:58;94705.22;;;7.73;63.61
22257;BME280;11297;42.686;23.374;2023-01-09T14:42:05;94690.19;;;7.75;63.30
22257;BME280;11297;42.686;23.374;2023-01-09T14:44:53;94687.41;;;7.71;63.58
22257;BME280;11297;42.686;23.374;2023-01-09T14:52:48;94700.22;;;7.76;64.25
22257;BME280;11297;42.686;23.374;2023-01-09T14:58:10;94681.25;;;7.94;63.66
22257;BME280;11297;42.686;23.374;2023-01-09T15:00:51;94696.69;;;7.72;63.83
22257;BME280;11297;42.686;23.374;2023-01-09T15:03:17;94687.00;;;7.78;63.57